Time;durP1;ratioP1;P1;durP2;ratioP2;P2;SDS_P1;SDS_P2;PMS_P1;PMS_P2;Temp;Humidity;BMP_temperature;BMP_pressure;BME280_temperature;BME280_humidity;BME280_pressure;Samples;Min_cycle;Max_cycle;Signal;HPM_P1;HPM_P2
2023/03/21 00:00:40;;;;;;;23.17;15.07;;;;;;;13.03;41.94;94808.41;5103235;28;20068;-73
2023/03/21 00:03:05;;;;;;;26.15;15.98;;;;;;;13.09;42.01;94803.06;5104264;28;20399;-74
2023/03/21 00:05:31;;;;;;;22.60;15.05;;;;;;;13.00;41.87;94812.06;5104577;28;20497;-73
2023/03/21 00:07:56;;;;;;;25.50;14.73;;;;;;;12.93;42.34;94807.59;5103565;28;20095;-73
2023/03/21 00:10:21;;;;;;;22.58;14.13;;;;;;;12.93;42.38;94806.84;5105100;28;20020;-73
2023/03/21 00:12:54;;;;;;;23.40;13.63;;;;;;;12.90;42.33;94811.28;5103261;28;20446;-73
2023/03/21 00:15:19;;;;;;;24.80;13.63;;;;;;;12.86;42.48;94802.38;5103140;28;20107;-73
2023/03/21 00:17:45;;;;;;;16.63;12.27;;;;;;;12.77;42.57;94777.50;5103284;28;20600;-73
2023/03/21 00:20:13;;;;;;;20.77;13.15;;;;;;;12.90;42.65;94803.00;5103977;28;20475;-73
2023/03/21 00:22:39;;;;;;;20.92;12.73;;;;;;;12.82;42.85;94807.25;5086520;28;20757;-73
2023/03/21 00:25:07;;;;;;;18.73;12.10;;;;;;;12.84;43.00;94809.56;5102756;28;20042;-73
2023/03/21 00:27:32;;;;;;;19.48;12.02;;;;;;;12.81;43.01;94802.97;5104490;28;20552;-73
2023/03/21 00:29:58;;;;;;;21.73;12.52;;;;;;;12.76;43.00;94809.06;5104234;28;20051;-73
2023/03/21 00:32:23;;;;;;;19.27;12.25;;;;;;;12.76;43.16;94811.84;5104562;28;20374;-72
2023/03/21 00:34:49;;;;;;;18.60;12.25;;;;;;;12.72;43.07;94802.94;5104576;28;20500;-73
2023/03/21 00:37:17;;;;;;;19.67;12.68;;;;;;;12.72;43.22;94808.44;5085527;28;20036;-72
2023/03/21 00:39:46;;;;;;;23.35;13.00;;;;;;;12.71;43.03;94796.66;5103076;28;20019;-73
2023/03/21 00:42:12;;;;;;;19.88;13.02;;;;;;;12.68;42.95;94794.03;5085643;28;20087;-73
2023/03/21 00:44:39;;;;;;;19.15;12.27;;;;;;;12.69;43.12;94790.06;5102886;28;20482;-73
2023/03/21 00:47:05;;;;;;;19.20;12.23;;;;;;;12.68;43.14;94794.03;5085683;28;20027;-73
2023/03/21 00:49:34;;;;;;;20.75;13.32;;;;;;;12.64;43.09;94796.16;5085543;28;20828;-74
2023/03/21 00:52:00;;;;;;;18.83;12.18;;;;;;;12.61;43.46;94803.34;5102729;28;20532;-73
2023/03/21 00:54:26;;;;;;;20.92;13.00;;;;;;;12.54;43.62;94795.34;5102272;28;20020;-73
2023/03/21 00:56:52;;;;;;;21.15;13.23;;;;;;;12.47;43.89;94790.88;5104233;28;20085;-73
2023/03/21 00:59:17;;;;;;;20.83;12.48;;;;;;;12.43;43.92;94792.22;5103685;28;20035;-73
2023/03/21 01:01:45;;;;;;;20.90;12.38;;;;;;;12.38;44.19;94792.81;5102445;28;20488;-73
2023/03/21 01:04:13;;;;;;;17.42;12.32;;;;;;;12.34;44.19;94790.22;5102365;28;20032;-73
2023/03/21 01:06:40;;;;;;;17.75;11.93;;;;;;;12.32;44.08;94789.13;5104130;28;20027;-72
2023/03/21 01:09:11;;;;;;;19.65;12.60;;;;;;;12.30;44.19;94781.31;5102672;28;20035;-74
2023/03/21 01:11:36;;;;;;;22.00;12.95;;;;;;;12.27;44.06;94779.44;5102738;28;20020;-73
2023/03/21 01:14:02;;;;;;;19.70;12.23;;;;;;;12.23;44.02;94787.09;5104192;28;20031;-73
2023/03/21 01:16:28;;;;;;;17.10;12.50;;;;;;;12.21;44.30;94782.03;5102419;28;20154;-73
2023/03/21 01:18:53;;;;;;;18.23;11.68;;;;;;;12.21;44.44;94775.72;5103405;28;20019;-74
2023/03/21 01:21:19;;;;;;;18.15;12.23;;;;;;;12.18;44.56;94774.66;5107007;27;20037;-74
2023/03/21 01:23:45;;;;;;;21.92;13.13;;;;;;;12.13;44.71;94777.22;5106146;28;20035;-74
2023/03/21 01:26:11;;;;;;;16.50;11.85;;;;;;;12.14;44.62;94785.03;5107710;27;20074;-73
2023/03/21 01:28:37;;;;;;;19.20;11.30;;;;;;;12.06;44.63;94780.25;5107375;28;20038;-73
2023/03/21 01:31:04;;;;;;;18.73;10.68;;;;;;;11.98;44.51;94778.97;5106049;28;20024;-73
2023/03/21 01:33:30;;;;;;;17.90;11.70;;;;;;;11.78;45.10;94780.03;5105635;28;20118;-72
2023/03/21 01:35:57;;;;;;;18.30;11.40;;;;;;;11.64;45.30;94781.31;5106371;28;20219;-73
2023/03/21 01:38:22;;;;;;;18.25;11.55;;;;;;;11.66;45.24;94789.91;5089484;28;20524;-74
2023/03/21 01:40:48;;;;;;;15.50;10.73;;;;;;;11.50;45.58;94770.81;5107755;28;20070;-73
2023/03/21 01:43:29;;;;;;;17.77;11.85;;;;;;;11.41;45.96;94773.47;5105445;28;20229;-74
2023/03/21 01:46:43;;;;;;;16.08;10.52;;;;;;;11.36;45.80;94779.56;5105759;28;20031;-73
2023/03/21 01:49:14;;;;;;;13.88;10.30;;;;;;;11.38;45.38;94775.13;5063838;28;20056;-73
2023/03/21 01:51:46;;;;;;;18.30;10.15;;;;;;;11.26;46.22;94775.94;5046870;28;20037;-73
2023/03/21 01:54:15;;;;;;;13.65;9.63;;;;;;;11.20;46.22;94766.72;5046972;28;20041;-74
2023/03/21 01:56:44;;;;;;;16.85;9.77;;;;;;;11.14;46.24;94774.00;5046773;28;20115;-73
2023/03/21 01:59:23;;;;;;;14.88;10.18;;;;;;;11.13;46.28;94775.22;5063374;28;20064;-72
2023/03/21 02:01:50;;;;;;;14.20;9.85;;;;;;;11.05;46.38;94774.69;5046978;28;20029;-73
2023/03/21 02:04:20;;;;;;;14.48;10.38;;;;;;;11.14;46.28;94776.75;5063456;28;20472;-72
2023/03/21 02:06:52;;;;;;;13.27;9.65;;;;;;;11.14;46.20;94771.25;5047310;28;20045;-74
2023/03/21 02:09:19;;;;;;;13.45;9.60;;;;;;;11.10;46.33;94765.88;5046811;28;20063;-74
2023/03/21 02:11:45;;;;;;;18.65;10.25;;;;;;;10.97;46.75;94775.38;5029774;28;20037;-74
2023/03/21 02:14:16;;;;;;;12.70;9.35;;;;;;;10.89;46.54;94770.06;5046793;28;20391;-74
2023/03/21 02:17:04;;;;;;;16.38;9.90;;;;;;;10.90;46.68;94763.38;5062799;28;20036;-74
2023/03/21 02:19:39;;;;;;;13.50;9.40;;;;;;;10.95;46.60;94762.03;5077356;28;20052;-74
2023/03/21 02:22:15;;;;;;;18.90;11.13;;;;;;;11.03;46.78;94760.59;5104706;28;20121;-72
2023/03/21 02:24:59;;;;;;;16.27;11.18;;;;;;;11.02;46.65;94759.06;5104858;28;20028;-73
2023/03/21 02:27:25;;;;;;;18.50;10.13;;;;;;;10.98;46.85;94746.66;5106047;28;20114;-73
2023/03/21 02:30:06;;;;;;;17.17;11.00;;;;;;;11.09;46.79;94761.59;5104625;28;20585;-73
2023/03/21 02:32:37;;;;;;;14.82;10.52;;;;;;;11.10;46.62;94765.09;5105570;28;20434;-72
2023/03/21 02:35:11;;;;;;;15.18;10.38;;;;;;;11.05;46.76;94752.66;5106067;28;20037;-74
2023/03/21 02:37:50;;;;;;;17.10;10.43;;;;;;;11.06;46.54;94761.69;5104485;28;20490;-72
2023/03/21 02:40:22;;;;;;;17.10;10.85;;;;;;;11.04;46.90;94761.38;5104526;28;20482;-73
2023/03/21 02:42:57;;;;;;;15.45;10.43;;;;;;;11.09;46.50;94763.56;5086906;28;20126;-73
2023/03/21 02:45:26;;;;;;;14.70;9.38;;;;;;;11.04;46.52;94758.63;5106014;28;20023;-73
2023/03/21 02:47:56;;;;;;;13.57;10.52;;;;;;;11.06;46.77;94765.22;5103790;28;20405;-73
2023/03/21 02:50:45;;;;;;;16.10;10.88;;;;;;;11.03;46.90;94755.09;5104424;28;20591;-73
2023/03/21 02:53:12;;;;;;;15.93;10.73;;;;;;;11.05;46.92;94754.66;5104618;28;20030;-74
2023/03/21 02:55:38;;;;;;;15.82;9.93;;;;;;;11.00;46.79;94747.72;5103944;28;20383;-73
2023/03/21 02:58:05;;;;;;;15.52;9.77;;;;;;;11.00;47.16;94752.47;5104714;28;20024;-73
2023/03/21 03:00:32;;;;;;;15.75;10.60;;;;;;;10.99;47.20;94757.19;5105224;28;20036;-74
2023/03/21 03:02:58;;;;;;;14.35;9.95;;;;;;;10.97;47.17;94751.38;5105550;28;20102;-73
2023/03/21 03:05:28;;;;;;;14.50;9.40;;;;;;;10.88;47.34;94743.78;5104087;28;20482;-73
2023/03/21 03:08:03;;;;;;;18.67;10.40;;;;;;;10.94;47.32;94768.00;5086740;28;20043;-73
2023/03/21 03:10:51;;;;;;;17.83;9.75;;;;;;;10.93;47.29;94761.72;5103983;28;20076;-73
2023/03/21 03:13:34;;;;;;;16.15;9.60;;;;;;;10.82;47.41;94753.81;5105196;28;20028;-73
2023/03/21 03:16:28;;;;;;;16.83;9.48;;;;;;;10.83;47.41;94757.34;5103891;28;20483;-74
2023/03/21 03:18:55;;;;;;;;;;;;;;;10.78;47.24;94761.44;5105578;28;20023;-72
2023/03/21 03:21:31;;;;;;;14.20;9.15;;;;;;;10.74;47.10;94760.78;5103651;28;20014;-74
2023/03/21 03:24:01;;;;;;;13.55;9.32;;;;;;;10.72;47.75;94768.69;5103625;28;20119;-72
2023/03/21 03:26:33;;;;;;;17.45;10.43;;;;;;;10.69;47.99;94772.31;5105061;28;20080;-73
2023/03/21 03:29:03;;;;;;;18.73;10.23;;;;;;;10.64;48.10;94767.38;5104829;28;20028;-73
2023/03/21 03:31:33;;;;;;;14.57;9.77;;;;;;;10.64;48.13;94765.41;5103625;28;20047;-74
2023/03/21 03:34:02;;;;;;;16.83;9.80;;;;;;;10.62;48.27;94765.06;5103397;28;20060;-73
2023/03/21 03:36:37;;;;;;;13.85;9.55;;;;;;;10.57;48.35;94759.34;5103609;28;20058;-73
2023/03/21 03:39:06;;;;;;;16.13;10.05;;;;;;;10.52;47.98;94759.91;5104831;28;20051;-73
2023/03/21 03:41:32;;;;;;;17.25;11.00;;;;;;;10.54;48.49;94762.97;5103562;28;20501;-73
2023/03/21 03:44:00;;;;;;;15.38;10.65;;;;;;;10.54;48.64;94772.00;5102135;28;20040;-72
2023/03/21 03:47:04;;;;;;;20.83;11.50;;;;;;;10.49;48.47;94752.53;5103318;28;20161;-72
2023/03/21 03:49:35;;;;;;;;;;;;;;;10.43;48.55;94755.06;5105188;28;20047;-72
2023/03/21 03:52:32;;;;;;;16.45;9.50;;;;;;;10.35;48.54;94757.28;5102945;28;19919;-74
2023/03/21 03:54:57;;;;;;;16.13;9.77;;;;;;;10.35;48.45;94759.25;5095960;28;20047;-73
2023/03/21 03:57:25;;;;;;;12.98;8.85;;;;;;;10.30;48.15;94760.56;5103264;28;20060;-73
2023/03/21 03:59:50;;;;;;;15.68;9.52;;;;;;;10.27;48.55;94757.94;5102856;28;20063;-72
2023/03/21 04:02:16;;;;;;;14.13;8.48;;;;;;;10.24;48.40;94759.56;5103117;28;20161;-72
2023/03/21 04:04:41;;;;;;;15.07;8.80;;;;;;;10.26;48.34;94764.63;5103140;28;20030;-72
2023/03/21 04:07:07;;;;;;;19.48;9.65;;;;;;;10.24;48.38;94764.31;5104768;28;20470;-72
2023/03/21 04:09:34;;;;;;;17.52;9.60;;;;;;;10.21;48.90;94757.69;5104691;28;20176;-74
2023/03/21 04:12:00;;;;;;;15.18;9.13;;;;;;;10.18;48.39;94753.06;5104347;28;20023;-74
2023/03/21 04:14:25;;;;;;;13.55;8.63;;;;;;;10.16;48.32;94754.72;5104275;28;20028;-74
2023/03/21 04:16:51;;;;;;;14.90;8.73;;;;;;;10.20;48.30;94758.88;5102857;28;20431;-74
2023/03/21 04:19:17;;;;;;;11.68;8.98;;;;;;;10.20;48.38;94750.63;5085964;28;20072;-73
2023/03/21 04:21:42;;;;;;;13.23;8.15;;;;;;;10.20;47.71;94747.88;5103061;28;20027;-73
2023/03/21 04:24:08;;;;;;;16.00;9.02;;;;;;;10.15;48.47;94750.41;5085848;28;20036;-75
2023/03/21 04:26:35;;;;;;;12.25;8.98;;;;;;;10.16;48.60;94739.00;5104366;28;20049;-73
2023/03/21 04:29:01;;;;;;;13.23;8.75;;;;;;;10.14;48.70;94746.91;5102930;28;20031;-74
2023/03/21 04:31:29;;;;;;;18.25;8.40;;;;;;;10.12;48.84;94746.56;5102799;28;20042;-74
2023/03/21 04:33:56;;;;;;;13.38;8.52;;;;;;;10.11;49.02;94751.31;5104208;28;20034;-73
2023/03/21 04:37:09;;;;;;;13.10;8.25;;;;;;;10.02;48.61;94753.16;5103019;28;20023;-73
2023/03/21 04:39:11;;;;;;;14.40;8.52;;;;;;;10.00;48.68;94761.06;5097179;28;20155;-73
2023/03/21 04:41:41;;;;;;;13.05;8.85;;;;;;;9.98;48.67;94758.00;5103013;28;20512;-74
2023/03/21 04:44:08;;;;;;;15.00;10.02;;;;;;;9.99;49.04;94756.78;5102337;28;20066;-74
2023/03/21 04:46:34;;;;;;;17.70;11.20;;;;;;;9.99;49.36;94760.28;5103029;28;20066;-73
2023/03/21 04:49:00;;;;;;;17.98;10.82;;;;;;;9.97;49.22;94759.19;5103700;28;20081;-74
2023/03/21 04:51:25;;;;;;;15.50;9.27;;;;;;;9.89;49.05;94760.59;5102893;28;20028;-73
2023/03/21 04:53:51;;;;;;;14.68;10.00;;;;;;;9.87;48.85;94755.56;5103325;28;20019;-75
2023/03/21 04:56:17;;;;;;;19.77;11.18;;;;;;;9.91;49.19;94764.44;5106320;28;20114;-74
2023/03/21 04:58:43;;;;;;;17.10;9.80;;;;;;;9.92;48.90;94760.50;5106649;28;20043;-74
2023/03/21 05:01:09;;;;;;;19.48;10.10;;;;;;;9.94;49.29;94760.84;5107345;28;20027;-74
2023/03/21 05:03:38;;;;;;;17.13;9.40;;;;;;;9.91;49.45;94763.66;5106505;28;20030;-74
2023/03/21 05:06:08;;;;;;;14.57;9.35;;;;;;;9.92;48.96;94765.22;5107440;28;20031;-73
2023/03/21 05:08:34;;;;;;;16.92;10.43;;;;;;;9.89;49.19;94766.09;5106401;28;20114;-74
2023/03/21 05:11:01;;;;;;;18.77;10.60;;;;;;;9.84;49.31;94765.41;5106072;28;20026;-73
2023/03/21 05:13:26;;;;;;;27.85;9.93;;;;;;;9.90;49.17;94767.63;5107797;28;20027;-74
2023/03/21 05:15:51;;;;;;;13.10;9.13;;;;;;;9.87;48.77;94768.50;5107722;28;20530;-74
2023/03/21 05:18:23;;;;;;;17.98;10.23;;;;;;;9.92;48.94;94768.75;5107359;28;20103;-74
2023/03/21 05:20:54;;;;;;;17.55;10.77;;;;;;;9.96;49.24;94763.13;5107749;27;20104;-75
2023/03/21 05:23:23;;;;;;;21.25;11.00;;;;;;;9.99;49.18;94768.53;5105753;28;20031;-74
2023/03/21 05:25:49;;;;;;;14.02;9.57;;;;;;;10.01;48.36;94766.09;5106101;28;20414;-74
2023/03/21 05:28:16;;;;;;;19.38;11.43;;;;;;;10.07;49.04;94771.84;5105728;28;20035;-75
2023/03/21 05:30:43;;;;;;;17.73;11.10;;;;;;;10.09;48.86;94772.94;5089755;28;20035;-74
2023/03/21 05:33:09;;;;;;;22.80;10.63;;;;;;;10.14;48.96;94774.38;5107124;28;20027;-73
2023/03/21 05:35:34;;;;;;;18.30;11.52;;;;;;;10.18;48.75;94766.78;5107238;28;20111;-73
2023/03/21 05:38:00;;;;;;;20.08;11.30;;;;;;;10.24;48.95;94778.03;5088849;28;20114;-74
2023/03/21 05:40:25;;;;;;;21.13;11.25;;;;;;;10.28;49.11;94778.72;5106630;28;20020;-74
2023/03/21 05:42:51;;;;;;;20.23;11.43;;;;;;;10.28;49.00;94781.47;5107117;28;20047;-74
2023/03/21 05:45:16;;;;;;;26.05;11.07;;;;;;;10.26;49.04;94767.38;5105361;28;20103;-74
2023/03/21 05:47:41;;;;;;;16.33;10.18;;;;;;;10.29;49.13;94770.03;5105367;28;20027;-73
2023/03/21 05:50:10;;;;;;;25.00;10.68;;;;;;;10.30;49.02;94765.28;5105370;28;20020;-74
2023/03/21 05:52:35;;;;;;;17.10;10.40;;;;;;;10.34;48.80;94760.47;5106812;28;20148;-73
2023/03/21 05:55:01;;;;;;;22.17;11.70;;;;;;;10.43;48.74;94763.31;5105465;28;20050;-73
2023/03/21 05:57:27;;;;;;;20.50;11.15;;;;;;;10.53;48.45;94753.19;5105036;28;20165;-73
2023/03/21 05:59:53;;;;;;;26.90;10.70;;;;;;;10.55;48.22;94759.00;5105311;28;20023;-75
2023/03/21 06:02:19;;;;;;;22.02;11.68;;;;;;;10.64;48.26;94753.63;5106413;28;20039;-73
2023/03/21 06:04:44;;;;;;;25.85;11.98;;;;;;;10.74;47.95;94752.53;5106433;28;20020;-74
2023/03/21 06:07:10;;;;;;;18.75;10.63;;;;;;;10.84;47.94;94748.66;5103879;28;20019;-74
2023/03/21 06:09:35;;;;;;;21.88;11.38;;;;;;;10.89;47.82;94753.56;5088126;28;20031;-75
2023/03/21 06:12:01;;;;;;;23.15;11.10;;;;;;;10.99;47.86;94756.44;5106528;28;20426;-75
2023/03/21 06:14:26;;;;;;;23.30;11.50;;;;;;;11.12;47.44;94751.66;5087715;28;20027;-73
2023/03/21 06:16:52;;;;;;;21.83;11.45;;;;;;;11.24;47.36;94753.63;5106638;28;20115;-73
2023/03/21 06:19:19;;;;;;;21.90;11.88;;;;;;;11.36;47.27;94752.03;5106198;27;20129;-73
2023/03/21 06:21:45;;;;;;;23.50;12.57;;;;;;;11.44;47.20;94748.59;5106328;28;20042;-73
2023/03/21 06:24:10;;;;;;;28.50;12.95;;;;;;;11.56;47.15;94743.47;5105012;28;20478;-74
2023/03/21 06:26:36;;;;;;;24.55;12.02;;;;;;;11.62;46.85;94745.19;5106039;28;20024;-74
2023/03/21 06:29:02;;;;;;;29.05;12.77;;;;;;;11.72;46.58;94737.78;5104824;28;20027;-73
2023/03/21 06:31:27;;;;;;;31.05;13.63;;;;;;;11.83;46.30;94737.41;5105913;28;20027;-73
2023/03/21 06:33:53;;;;;;;28.15;14.18;;;;;;;11.91;46.13;94736.69;5106340;28;20023;-74
2023/03/21 06:36:19;;;;;;;40.22;19.90;;;;;;;12.01;46.04;94739.50;5104397;28;20020;-74
2023/03/21 06:38:45;;;;;;;37.90;19.88;;;;;;;12.18;45.93;94757.34;5104748;28;20478;-74
2023/03/21 06:41:11;;;;;;;49.60;25.35;;;;;;;12.31;45.79;94746.22;5104525;28;20503;-74
2023/03/21 06:43:37;;;;;;;52.05;27.38;;;;;;;12.40;45.75;94752.56;5103655;28;20081;-74
2023/03/21 06:46:03;;;;;;;49.28;26.98;;;;;;;12.51;45.50;94752.16;5104682;28;20040;-73
2023/03/21 06:48:28;;;;;;;51.05;26.48;;;;;;;12.61;45.19;94755.69;5103982;28;20450;-74
2023/03/21 06:50:55;;;;;;;41.90;24.40;;;;;;;12.65;45.05;94750.81;5104168;28;20070;-73
2023/03/21 06:53:28;;;;;;;33.80;19.98;;;;;;;12.79;44.66;94758.53;5104253;28;20135;-73
2023/03/21 06:55:54;;;;;;;33.13;18.63;;;;;;;12.80;44.55;94757.31;5104603;28;20046;-74
2023/03/21 06:58:20;;;;;;;29.33;17.23;;;;;;;12.94;43.73;94767.75;5103801;28;20560;-74
2023/03/21 07:00:47;;;;;;;32.13;18.20;;;;;;;13.05;43.24;94772.06;5103903;28;20035;-74
2023/03/21 07:03:13;;;;;;;27.85;15.90;;;;;;;13.12;43.35;94769.78;5105409;28;20027;-73
2023/03/21 07:05:39;;;;;;;36.90;16.13;;;;;;;13.17;43.20;94771.94;5103854;28;20497;-74
2023/03/21 07:08:05;;;;;;;36.10;17.00;;;;;;;13.26;43.03;94758.19;5105252;28;20028;-73
2023/03/21 07:10:31;;;;;;;29.40;16.08;;;;;;;13.43;42.62;94768.94;5103831;28;20020;-73
2023/03/21 07:13:00;;;;;;;43.08;16.48;;;;;;;13.55;42.31;94766.03;5103908;28;20476;-73
2023/03/21 07:15:25;;;;;;;28.17;15.45;;;;;;;13.59;42.35;94762.34;5103649;28;20031;-73
2023/03/21 07:17:51;;;;;;;25.85;14.82;;;;;;;13.63;42.00;94762.94;5105123;28;20091;-72
2023/03/21 07:20:16;;;;;;;30.23;16.25;;;;;;;13.74;41.89;94768.78;5104932;28;20425;-74
2023/03/21 07:22:42;;;;;;;22.38;14.85;;;;;;;13.76;41.67;94774.59;5104936;28;20019;-73
2023/03/21 07:25:09;;;;;;;27.23;14.82;;;;;;;13.85;41.25;94763.56;5105226;28;20024;-74
2023/03/21 07:27:35;;;;;;;23.13;14.48;;;;;;;13.94;40.90;94768.31;5086300;28;20408;-74
2023/03/21 07:30:01;;;;;;;25.70;13.88;;;;;;;14.01;40.71;94765.22;5103763;28;20024;-73
2023/03/21 07:32:28;;;;;;;24.33;13.75;;;;;;;14.14;40.67;94759.50;5105111;28;20027;-74
2023/03/21 07:34:54;;;;;;;25.02;12.68;;;;;;;14.19;40.62;94750.59;5105050;28;20049;-73
2023/03/21 07:37:20;;;;;;;21.33;12.43;;;;;;;14.24;40.64;94758.25;5086301;28;20023;-74
2023/03/21 07:39:46;;;;;;;19.02;11.80;;;;;;;14.27;40.50;94762.84;5101386;28;20023;-73
2023/03/21 07:42:12;;;;;;;19.42;11.45;;;;;;;14.35;40.17;94764.06;5103083;28;20136;-73
2023/03/21 07:44:38;;;;;;;19.48;11.00;;;;;;;14.42;39.81;94769.28;5102662;28;20023;-75
2023/03/21 07:47:05;;;;;;;15.77;10.88;;;;;;;14.57;39.40;94770.19;5102874;28;20104;-73
2023/03/21 07:49:30;;;;;;;23.20;12.38;;;;;;;14.68;39.19;94772.44;5085857;28;20534;-73
2023/03/21 07:51:56;;;;;;;19.45;11.82;;;;;;;14.73;39.09;94762.72;5103410;28;20026;-74
2023/03/21 07:54:21;;;;;;;18.10;10.77;;;;;;;14.80;38.79;94767.94;5104626;28;20019;-73
2023/03/21 07:56:47;;;;;;;15.98;10.35;;;;;;;14.82;38.52;94771.75;5104260;28;20028;-73
2023/03/21 07:59:12;;;;;;;15.25;9.73;;;;;;;14.87;38.41;94771.13;5085837;28;20106;-73
2023/03/21 08:01:38;;;;;;;17.75;10.15;;;;;;;14.92;38.70;94772.47;5102703;28;20409;-73
2023/03/21 08:04:03;;;;;;;17.63;11.13;;;;;;;14.96;38.24;94772.28;5103031;28;20019;-74
2023/03/21 08:06:31;;;;;;;16.33;10.48;;;;;;;15.04;38.57;94773.50;5103039;28;20015;-74
2023/03/21 08:08:59;;;;;;;16.67;10.07;;;;;;;15.14;38.28;94769.44;5104571;28;20106;-75
2023/03/21 08:11:26;;;;;;;16.75;11.05;;;;;;;15.27;38.12;94774.75;5102878;28;20062;-73
2023/03/21 08:13:52;;;;;;;15.43;10.30;;;;;;;15.36;38.13;94769.91;5086310;28;20027;-73
2023/03/21 08:16:18;;;;;;;18.08;10.27;;;;;;;15.40;38.02;94769.72;5102580;28;20027;-73
2023/03/21 08:18:43;;;;;;;18.15;10.73;;;;;;;15.44;37.73;94764.78;5104077;28;20023;-74
2023/03/21 08:21:09;;;;;;;16.30;10.05;;;;;;;15.39;37.73;94752.34;5103271;28;20030;-73
2023/03/21 08:23:35;;;;;;;17.85;11.18;;;;;;;15.50;37.79;94762.88;5102971;28;20028;-73
2023/03/21 08:26:00;;;;;;;19.23;10.15;;;;;;;15.58;37.52;94755.72;5104183;28;20492;-74
2023/03/21 08:28:26;;;;;;;16.88;10.98;;;;;;;15.67;37.74;94757.72;5104537;28;20024;-73
2023/03/21 08:30:51;;;;;;;21.55;10.60;;;;;;;15.75;37.42;94756.09;5106704;28;20029;-73
2023/03/21 08:33:17;;;;;;;18.45;9.38;;;;;;;15.82;36.76;94752.94;5106932;28;20031;-73
2023/03/21 08:35:44;;;;;;;13.23;9.70;;;;;;;15.93;36.47;94750.38;5106966;28;20110;-73
2023/03/21 08:38:09;;;;;;;15.05;9.52;;;;;;;15.97;36.65;94752.22;5106699;28;20024;-73
2023/03/21 08:40:35;;;;;;;17.10;9.35;;;;;;;15.98;36.60;94751.72;5108368;27;20039;-73
2023/03/21 08:43:01;;;;;;;12.30;8.65;;;;;;;16.10;36.56;94747.91;5106414;28;20039;-73
2023/03/21 08:45:26;;;;;;;16.23;10.30;;;;;;;16.07;36.54;94754.41;5106627;28;20031;-74
2023/03/21 08:47:52;;;;;;;15.32;10.85;;;;;;;16.13;36.51;94755.28;5106457;28;20149;-74
2023/03/21 08:50:20;;;;;;;19.98;10.23;;;;;;;16.19;36.50;94758.91;5106567;28;20038;-74
2023/03/21 08:52:45;;;;;;;13.80;9.10;;;;;;;16.15;36.62;94747.25;5090692;28;20551;-74
2023/03/21 08:55:12;;;;;;;14.73;9.88;;;;;;;16.17;36.35;94746.75;5108760;28;20042;-73
2023/03/21 08:57:37;;;;;;;15.93;9.05;;;;;;;16.18;36.39;94745.53;5089577;28;20088;-73
2023/03/21 09:00:15;;;;;;;14.60;9.25;;;;;;;16.26;36.67;94746.66;5106277;28;20106;-74
2023/03/21 09:02:42;;;;;;;15.48;10.23;;;;;;;16.34;36.67;94750.56;5108288;28;20118;-74
2023/03/21 09:05:10;;;;;;;16.60;9.50;;;;;;;16.36;36.88;94750.13;5106564;28;20166;-74
2023/03/21 09:07:39;;;;;;;19.35;11.13;;;;;;;16.36;36.87;94755.66;5107656;28;20032;-73
2023/03/21 09:10:07;;;;;;;23.52;12.93;;;;;;;16.32;36.72;94744.75;5107670;28;20418;-74
2023/03/21 09:12:33;;;;;;;17.73;11.90;;;;;;;16.31;36.86;94740.47;5089398;28;20520;-74
2023/03/21 09:15:01;;;;;;;13.95;9.00;;;;;;;16.35;36.95;94729.19;5107632;28;20112;-74
2023/03/21 09:17:30;;;;;;;17.23;9.75;;;;;;;16.30;36.89;94721.53;5107543;28;20394;-73
2023/03/21 09:19:58;;;;;;;15.98;10.10;;;;;;;16.31;36.94;94729.38;5088917;28;20024;-75
2023/03/21 09:22:24;;;;;;;14.63;8.80;;;;;;;16.39;36.91;94724.94;5106084;28;20110;-74
2023/03/21 09:24:50;;;;;;;13.30;8.23;;;;;;;16.49;36.65;94716.53;5105737;28;20157;-72
2023/03/21 09:27:21;;;;;;;13.57;8.10;;;;;;;16.59;36.48;94715.19;5106010;28;20416;-74
2023/03/21 09:29:48;;;;;;;14.05;8.40;;;;;;;16.73;36.21;94709.59;5107013;28;20020;-74
2023/03/21 09:32:14;;;;;;;12.35;9.00;;;;;;;16.78;36.07;94719.25;5105647;28;20019;-73
2023/03/21 09:34:40;;;;;;;16.85;8.73;;;;;;;16.96;36.15;94718.25;5105938;28;20361;-74
2023/03/21 09:37:12;;;;;;;13.68;9.82;;;;;;;17.06;36.08;94699.47;5107221;28;20051;-73
2023/03/21 09:39:41;;;;;;;15.07;8.35;;;;;;;17.10;35.85;94703.56;5105745;28;20359;-75
2023/03/21 09:42:14;;;;;;;12.30;7.97;;;;;;;17.21;35.76;94714.81;5104954;28;20047;-73
2023/03/21 09:44:43;;;;;;;11.90;9.05;;;;;;;17.21;35.90;94709.25;5105718;28;20032;-73
2023/03/21 09:47:19;;;;;;;11.27;8.43;;;;;;;17.30;35.50;94696.47;5106570;28;20019;-73
2023/03/21 09:49:50;;;;;;;15.90;9.25;;;;;;;17.38;35.65;94695.59;5105428;28;20034;-73
2023/03/21 09:52:46;;;;;;;15.05;8.68;;;;;;;17.46;35.40;94682.78;5105399;28;20078;-74
2023/03/21 09:55:29;;;;;;;13.18;8.75;;;;;;;17.42;35.50;94693.34;5078065;28;20038;-75
2023/03/21 09:58:06;;;;;;;14.00;9.88;;;;;;;17.55;35.27;94700.53;5105374;28;20578;-73
2023/03/21 10:00:38;;;;;;;17.17;9.55;;;;;;;17.59;35.12;94695.53;5106426;28;20565;-74
2023/03/21 10:03:16;;;;;;;14.23;8.07;;;;;;;17.72;34.32;94684.84;5105151;28;20024;-73
2023/03/21 10:05:43;;;;;;;13.70;9.32;;;;;;;17.94;34.08;94682.28;5088554;28;20073;-73
2023/03/21 10:08:21;;;;;;;11.50;8.75;;;;;;;18.22;33.37;94679.00;5106262;28;20453;-74
2023/03/21 10:10:49;;;;;;;16.17;8.65;;;;;;;18.47;32.70;94674.66;5105484;28;20490;-74
2023/03/21 10:13:19;;;;;;;12.40;8.23;;;;;;;18.82;31.98;94669.59;5104968;28;20031;-73
2023/03/21 10:15:45;;;;;;;18.20;8.10;;;;;;;20.02;30.55;94673.09;5105553;28;20081;-73
2023/03/21 10:18:15;;;;;;;13.52;8.00;;;;;;;21.07;29.20;94675.59;5104857;28;20109;-74
2023/03/21 10:20:41;;;;;;;14.95;8.80;;;;;;;22.09;27.79;94677.44;5105005;28;20050;-73
2023/03/21 10:23:12;;;;;;;18.88;10.40;;;;;;;23.38;26.36;94670.69;5104888;28;20030;-72
2023/03/21 10:25:43;;;;;;;15.55;10.68;;;;;;;24.61;24.22;94673.88;5087799;28;20106;-74
2023/03/21 10:28:15;;;;;;;18.02;9.23;;;;;;;25.91;22.43;94675.78;5087531;28;20508;-73
2023/03/21 10:30:49;;;;;;;12.85;9.77;;;;;;;27.03;21.47;94684.47;5104810;28;20027;-73
2023/03/21 10:33:42;;;;;;;15.35;10.20;;;;;;;27.31;20.54;94683.75;5104576;28;20023;-72
2023/03/21 10:36:09;;;;;;;11.80;8.55;;;;;;;27.14;20.31;94674.97;5101726;28;20490;-73
2023/03/21 10:38:38;;;;;;;11.43;8.57;;;;;;;27.10;20.52;94675.31;5105727;28;20402;-74
2023/03/21 10:41:03;;;;;;;11.15;8.77;;;;;;;27.33;19.83;94671.91;5104594;28;20030;-73
2023/03/21 10:43:33;;;;;;;11.10;8.00;;;;;;;27.51;19.51;94674.44;5105243;28;20044;-73
2023/03/21 10:46:05;;;;;;;10.80;8.23;;;;;;;27.31;19.64;94669.63;5105844;28;20470;-74
2023/03/21 10:48:35;;;;;;;10.47;7.47;;;;;;;27.66;19.02;94668.16;5105401;28;20035;-74
2023/03/21 10:51:00;;;;;;;8.45;7.28;;;;;;;27.66;18.98;94681.50;5087503;28;20032;-73
2023/03/21 10:53:32;;;;;;;10.10;6.95;;;;;;;27.86;18.84;94683.50;5103920;28;20080;-73
2023/03/21 10:56:01;;;;;;;10.48;7.63;;;;;;;27.97;18.97;94674.69;5087219;28;20028;-75
2023/03/21 10:58:34;;;;;;;8.85;6.95;;;;;;;28.11;18.48;94671.75;5105583;28;20031;-73
2023/03/21 11:01:05;;;;;;;8.02;5.43;;;;;;;28.50;16.89;94670.53;5105349;28;20050;-73
2023/03/21 11:03:42;;;;;;;11.25;6.38;;;;;;;28.53;17.41;94661.69;5104083;28;20027;-73
2023/03/21 11:06:28;;;;;;;14.30;6.47;;;;;;;28.24;17.73;94658.22;5104277;28;20024;-72
2023/03/21 11:08:56;;;;;;;8.25;6.22;;;;;;;28.73;17.49;94654.38;5103952;28;20117;-73
2023/03/21 11:11:36;;;;;;;10.60;6.60;;;;;;;29.03;17.17;94647.25;5103854;28;20036;-73
2023/03/21 11:14:06;;;;;;;12.93;5.82;;;;;;;28.65;17.20;94641.53;5103898;28;20497;-73
2023/03/21 11:16:37;;;;;;;12.25;8.50;;;;;;;28.71;17.17;94634.38;5103823;28;20032;-74
2023/03/21 11:19:13;;;;;;;12.23;6.55;;;;;;;29.13;16.87;94631.19;5105649;28;20042;-73
2023/03/21 11:21:38;;;;;;;9.35;5.95;;;;;;;29.21;16.71;94626.28;5103514;28;20659;-73
2023/03/21 11:24:05;;;;;;;8.98;5.53;;;;;;;29.30;16.77;94628.50;5105476;28;20221;-73
2023/03/21 11:26:35;;;;;;;9.98;5.68;;;;;;;29.29;16.43;94626.25;5103751;28;20111;-73
2023/03/21 11:29:26;;;;;;;12.82;8.73;;;;;;;29.61;16.57;94631.31;5103563;28;20099;-74